sensor_id;sensor_type;location;lat;lon;timestamp;P1;durP1;ratioP1;P2;durP2;ratioP2
75508;SDS011;64214;47.250;11.332;2022-11-27T00:00:09;4.13;;;2.58;;
75508;SDS011;64214;47.250;11.332;2022-11-27T00:00:23;5.85;;;2.80;;
75508;SDS011;64214;47.250;11.332;2022-11-27T00:00:34;5.40;;;2.90;;
75508;SDS011;64214;47.250;11.332;2022-11-27T00:00:45;7.72;;;2.80;;
75508;SDS011;64214;47.250;11.332;2022-11-27T00:00:56;7.00;;;2.50;;
75508;SDS011;64214;47.250;11.332;2022-11-27T00:01:11;7.35;;;2.30;;
75508;SDS011;64214;47.250;11.332;2022-11-27T00:01:24;4.10;;;2.22;;
75508;SDS011;64214;47.250;11.332;2022-11-27T00:01:37;3.40;;;2.30;;
75508;SDS011;64214;47.250;11.332;2022-11-27T00:01:49;3.45;;;2.28;;
75508;SDS011;64214;47.250;11.332;2022-11-27T00:02:00;3.35;;;2.13;;
75508;SDS011;64214;47.250;11.332;2022-11-27T00:02:11;3.47;;;2.10;;
75508;SDS011;64214;47.250;11.332;2022-11-27T00:02:22;3.28;;;2.10;;
75508;SDS011;64214;47.250;11.332;2022-11-27T00:02:33;3.00;;;2.08;;
75508;SDS011;64214;47.250;11.332;2022-11-27T00:02:44;3.20;;;2.05;;
75508;SDS011;64214;47.250;11.332;2022-11-27T00:02:55;3.70;;;2.30;;
75508;SDS011;64214;47.250;11.332;2022-11-27T00:03:06;3.75;;;2.20;;
75508;SDS011;64214;47.250;11.332;2022-11-27T00:03:18;3.53;;;2.20;;
75508;SDS011;64214;47.250;11.332;2022-11-27T00:03:29;2.95;;;1.92;;
75508;SDS011;64214;47.250;11.332;2022-11-27T00:03:40;2.60;;;1.95;;
75508;SDS011;64214;47.250;11.332;2022-11-27T00:03:54;2.17;;;1.80;;
75508;SDS011;64214;47.250;11.332;2022-11-27T00:04:06;3.08;;;1.90;;
75508;SDS011;64214;47.250;11.332;2022-11-27T00:04:18;4.18;;;2.08;;
75508;SDS011;64214;47.250;11.332;2022-11-27T00:04:29;4.35;;;2.22;;
75508;SDS011;64214;47.250;11.332;2022-11-27T00:04:40;4.00;;;2.13;;
75508;SDS011;64214;47.250;11.332;2022-11-27T00:04:51;4.50;;;2.35;;
75508;SDS011;64214;47.250;11.332;2022-11-27T00:05:02;4.00;;;2.13;;
75508;SDS011;64214;47.250;11.332;2022-11-27T00:05:14;3.50;;;2.00;;
75508;SDS011;64214;47.250;11.332;2022-11-27T00:05:25;2.70;;;1.80;;
75508;SDS011;64214;47.250;11.332;2022-11-27T00:05:36;3.20;;;1.95;;
75508;SDS011;64214;47.250;11.332;2022-11-27T00:05:53;3.42;;;2.00;;
75508;SDS011;64214;47.250;11.332;2022-11-27T00:06:06;3.50;;;1.90;;
75508;SDS011;64214;47.250;11.332;2022-11-27T00:06:19;4.50;;;1.90;;
75508;SDS011;64214;47.250;11.332;2022-11-27T00:06:32;4.70;;;1.97;;
75508;SDS011;64214;47.250;11.332;2022-11-27T00:06:43;4.47;;;1.92;;
75508;SDS011;64214;47.250;11.332;2022-11-27T00:06:54;3.45;;;1.70;;
75508;SDS011;64214;47.250;11.332;2022-11-27T00:07:06;3.00;;;1.70;;
75508;SDS011;64214;47.250;11.332;2022-11-27T00:07:17;2.80;;;1.77;;
75508;SDS011;64214;47.250;11.332;2022-11-27T00:07:28;3.30;;;1.80;;
75508;SDS011;64214;47.250;11.332;2022-11-27T00:07:39;4.17;;;1.97;;
75508;SDS011;64214;47.250;11.332;2022-11-27T00:07:50;4.32;;;1.90;;
75508;SDS011;64214;47.250;11.332;2022-11-27T00:08:01;3.30;;;1.80;;
75508;SDS011;64214;47.250;11.332;2022-11-27T00:08:12;2.80;;;1.70;;
75508;SDS011;64214;47.250;11.332;2022-11-27T00:08:23;2.80;;;1.87;;
75508;SDS011;64214;47.250;11.332;2022-11-27T00:08:35;2.95;;;2.00;;
75508;SDS011;64214;47.250;11.332;2022-11-27T00:08:46;3.42;;;2.10;;
75508;SDS011;64214;47.250;11.332;2022-11-27T00:08:58;3.22;;;2.15;;
75508;SDS011;64214;47.250;11.332;2022-11-27T00:09:11;4.20;;;2.40;;
75508;SDS011;64214;47.250;11.332;2022-11-27T00:09:24;3.80;;;2.33;;
75508;SDS011;64214;47.250;11.332;2022-11-27T00:09:35;3.65;;;2.20;;
75508;SDS011;64214;47.250;11.332;2022-11-27T00:09:46;3.67;;;2.20;;
75508;SDS011;64214;47.250;11.332;2022-11-27T00:09:57;4.00;;;2.20;;
75508;SDS011;64214;47.250;11.332;2022-11-27T00:10:08;3.53;;;2.00;;
75508;SDS011;64214;47.250;11.332;2022-11-27T00:10:20;2.85;;;1.92;;
75508;SDS011;64214;47.250;11.332;2022-11-27T00:10:31;2.55;;;1.95;;
75508;SDS011;64214;47.250;11.332;2022-11-27T00:10:42;2.50;;;1.95;;
75508;SDS011;64214;47.250;11.332;2022-11-27T00:10:53;2.58;;;1.95;;
75508;SDS011;64214;47.250;11.332;2022-11-27T00:11:05;2.67;;;1.98;;
75508;SDS011;64214;47.250;11.332;2022-11-27T00:11:20;3.03;;;2.03;;
75508;SDS011;64214;47.250;11.332;2022-11-27T00:11:33;2.92;;;2.05;;
75508;SDS011;64214;47.250;11.332;2022-11-27T00:11:44;2.42;;;1.90;;
75508;SDS011;64214;47.250;11.332;2022-11-27T00:11:55;2.40;;;1.80;;
75508;SDS011;64214;47.250;11.332;2022-11-27T00:12:06;2.60;;;1.98;;
75508;SDS011;64214;47.250;11.332;2022-11-27T00:12:17;2.70;;;1.90;;
75508;SDS011;64214;47.250;11.332;2022-11-27T00:12:29;3.20;;;2.03;;
75508;SDS011;64214;47.250;11.332;2022-11-27T00:12:40;3.55;;;2.15;;
75508;SDS011;64214;47.250;11.332;2022-11-27T00:12:51;4.03;;;2.17;;
75508;SDS011;64214;47.250;11.332;2022-11-27T00:13:02;3.80;;;2.03;;
75508;SDS011;64214;47.250;11.332;2022-11-27T00:13:14;3.38;;;2.00;;
75508;SDS011;64214;47.250;11.332;2022-11-27T00:13:25;3.20;;;1.90;;
75508;SDS011;64214;47.250;11.332;2022-11-27T00:13:36;3.20;;;2.00;;
75508;SDS011;64214;47.250;11.332;2022-11-27T00:13:47;3.10;;;1.93;;
75508;SDS011;64214;47.250;11.332;2022-11-27T00:13:59;3.50;;;2.10;;
75508;SDS011;64214;47.250;11.332;2022-11-27T00:14:11;4.03;;;2.20;;
75508;SDS011;64214;47.250;11.332;2022-11-27T00:14:23;3.30;;;1.98;;
75508;SDS011;64214;47.250;11.332;2022-11-27T00:14:34;2.80;;;2.00;;
75508;SDS011;64214;47.250;11.332;2022-11-27T00:14:46;3.28;;;1.92;;
75508;SDS011;64214;47.250;11.332;2022-11-27T00:14:58;3.45;;;2.05;;
75508;SDS011;64214;47.250;11.332;2022-11-27T00:15:09;3.13;;;2.00;;
75508;SDS011;64214;47.250;11.332;2022-11-27T00:15:20;3.10;;;1.98;;
75508;SDS011;64214;47.250;11.332;2022-11-27T00:15:32;3.65;;;1.90;;
75508;SDS011;64214;47.250;11.332;2022-11-27T00:15:43;3.85;;;1.95;;
75508;SDS011;64214;47.250;11.332;2022-11-27T00:15:55;3.53;;;1.90;;
75508;SDS011;64214;47.250;11.332;2022-11-27T00:16:07;3.53;;;2.00;;
75508;SDS011;64214;47.250;11.332;2022-11-27T00:16:19;4.75;;;2.20;;
75508;SDS011;64214;47.250;11.332;2022-11-27T00:16:31;4.38;;;2.30;;
75508;SDS011;64214;47.250;11.332;2022-11-27T00:16:42;3.00;;;2.00;;
75508;SDS011;64214;47.250;11.332;2022-11-27T00:16:53;3.25;;;1.92;;
75508;SDS011;64214;47.250;11.332;2022-11-27T00:17:04;3.42;;;1.88;;
75508;SDS011;64214;47.250;11.332;2022-11-27T00:17:16;3.72;;;1.92;;
75508;SDS011;64214;47.250;11.332;2022-11-27T00:17:27;3.42;;;2.03;;
75508;SDS011;64214;47.250;11.332;2022-11-27T00:17:38;3.50;;;2.05;;
75508;SDS011;64214;47.250;11.332;2022-11-27T00:17:49;2.65;;;2.10;;
75508;SDS011;64214;47.250;11.332;2022-11-27T00:18:00;2.80;;;1.98;;
75508;SDS011;64214;47.250;11.332;2022-11-27T00:18:11;2.88;;;1.85;;
75508;SDS011;64214;47.250;11.332;2022-11-27T00:18:22;3.42;;;1.80;;
75508;SDS011;64214;47.250;11.332;2022-11-27T00:18:33;3.47;;;2.03;;
75508;SDS011;64214;47.250;11.332;2022-11-27T00:18:45;3.60;;;2.17;;
75508;SDS011;64214;47.250;11.332;2022-11-27T00:18:56;3.72;;;2.13;;
75508;SDS011;64214;47.250;11.332;2022-11-27T00:19:08;3.10;;;1.85;;
75508;SDS011;64214;47.250;11.332;2022-11-27T00:19:20;3.70;;;2.00;;
75508;SDS011;64214;47.250;11.332;2022-11-27T00:19:31;3.33;;;2.17;;
75508;SDS011;64214;47.250;11.332;2022-11-27T00:19:42;4.10;;;2.38;;
75508;SDS011;64214;47.250;11.332;2022-11-27T00:19:53;3.90;;;2.30;;
75508;SDS011;64214;47.250;11.332;2022-11-27T00:20:04;3.88;;;2.22;;
75508;SDS011;64214;47.250;11.332;2022-11-27T00:20:16;3.28;;;2.00;;
75508;SDS011;64214;47.250;11.332;2022-11-27T00:20:27;3.42;;;2.20;;
75508;SDS011;64214;47.250;11.332;2022-11-27T00:20:38;3.35;;;2.30;;
75508;SDS011;64214;47.250;11.332;2022-11-27T00:20:49;3.30;;;2.50;;
75508;SDS011;64214;47.250;11.332;2022-11-27T00:21:04;3.42;;;2.50;;
75508;SDS011;64214;47.250;11.332;2022-11-27T00:21:20;4.20;;;2.65;;
75508;SDS011;64214;47.250;11.332;2022-11-27T00:21:49;3.78;;;2.20;;
75508;SDS011;64214;47.250;11.332;2022-11-27T00:22:00;3.60;;;2.30;;
75508;SDS011;64214;47.250;11.332;2022-11-27T00:22:11;3.55;;;2.30;;
75508;SDS011;64214;47.250;11.332;2022-11-27T00:22:22;3.85;;;2.42;;
75508;SDS011;64214;47.250;11.332;2022-11-27T00:22:36;4.60;;;2.40;;
75508;SDS011;64214;47.250;11.332;2022-11-27T00:22:47;4.53;;;2.47;;
75508;SDS011;64214;47.250;11.332;2022-11-27T00:22:58;4.03;;;2.40;;
75508;SDS011;64214;47.250;11.332;2022-11-27T00:23:09;4.13;;;2.28;;
75508;SDS011;64214;47.250;11.332;2022-11-27T00:23:20;4.53;;;2.30;;
75508;SDS011;64214;47.250;11.332;2022-11-27T00:23:32;4.63;;;2.55;;
75508;SDS011;64214;47.250;11.332;2022-11-27T00:23:44;4.82;;;2.75;;
75508;SDS011;64214;47.250;11.332;2022-11-27T00:23:55;4.53;;;2.92;;
75508;SDS011;64214;47.250;11.332;2022-11-27T00:24:07;5.60;;;3.72;;
75508;SDS011;64214;47.250;11.332;2022-11-27T00:24:20;6.43;;;3.88;;
75508;SDS011;64214;47.250;11.332;2022-11-27T00:24:31;5.97;;;3.45;;
75508;SDS011;64214;47.250;11.332;2022-11-27T00:24:42;7.10;;;3.38;;
75508;SDS011;64214;47.250;11.332;2022-11-27T00:24:53;6.28;;;3.17;;
75508;SDS011;64214;47.250;11.332;2022-11-27T00:25:05;6.15;;;3.13;;
75508;SDS011;64214;47.250;11.332;2022-11-27T00:25:16;6.20;;;3.20;;
75508;SDS011;64214;47.250;11.332;2022-11-27T00:25:27;6.35;;;3.30;;
75508;SDS011;64214;47.250;11.332;2022-11-27T00:25:38;6.07;;;3.38;;
75508;SDS011;64214;47.250;11.332;2022-11-27T00:25:50;5.78;;;3.25;;
75508;SDS011;64214;47.250;11.332;2022-11-27T00:26:02;5.55;;;3.10;;
75508;SDS011;64214;47.250;11.332;2022-11-27T00:26:14;5.60;;;3.05;;
75508;SDS011;64214;47.250;11.332;2022-11-27T00:26:25;6.05;;;2.85;;
75508;SDS011;64214;47.250;11.332;2022-11-27T00:26:38;5.43;;;2.53;;
75508;SDS011;64214;47.250;11.332;2022-11-27T00:26:49;4.25;;;2.30;;
75508;SDS011;64214;47.250;11.332;2022-11-27T00:27:00;3.95;;;2.45;;
75508;SDS011;64214;47.250;11.332;2022-11-27T00:27:11;3.80;;;2.53;;
75508;SDS011;64214;47.250;11.332;2022-11-27T00:27:22;4.30;;;2.60;;
75508;SDS011;64214;47.250;11.332;2022-11-27T00:27:34;5.22;;;2.70;;
75508;SDS011;64214;47.250;11.332;2022-11-27T00:27:45;4.47;;;2.58;;
75508;SDS011;64214;47.250;11.332;2022-11-27T00:27:56;3.55;;;2.22;;
75508;SDS011;64214;47.250;11.332;2022-11-27T00:28:07;3.25;;;2.13;;
75508;SDS011;64214;47.250;11.332;2022-11-27T00:28:18;3.63;;;2.42;;
75508;SDS011;64214;47.250;11.332;2022-11-27T00:28:29;4.15;;;2.60;;
75508;SDS011;64214;47.250;11.332;2022-11-27T00:28:41;4.43;;;2.65;;
75508;SDS011;64214;47.250;11.332;2022-11-27T00:28:52;4.20;;;2.60;;
75508;SDS011;64214;47.250;11.332;2022-11-27T00:29:03;4.15;;;2.75;;
75508;SDS011;64214;47.250;11.332;2022-11-27T00:29:15;3.92;;;2.80;;
75508;SDS011;64214;47.250;11.332;2022-11-27T00:29:26;3.65;;;2.70;;
75508;SDS011;64214;47.250;11.332;2022-11-27T00:29:38;3.50;;;2.47;;
75508;SDS011;64214;47.250;11.332;2022-11-27T00:29:49;3.55;;;2.40;;
75508;SDS011;64214;47.250;11.332;2022-11-27T00:30:01;3.33;;;2.33;;
75508;SDS011;64214;47.250;11.332;2022-11-27T00:30:12;2.92;;;2.25;;
75508;SDS011;64214;47.250;11.332;2022-11-27T00:30:23;3.30;;;2.20;;
75508;SDS011;64214;47.250;11.332;2022-11-27T00:30:34;3.53;;;2.10;;
75508;SDS011;64214;47.250;11.332;2022-11-27T00:30:45;3.75;;;2.20;;
75508;SDS011;64214;47.250;11.332;2022-11-27T00:30:58;3.38;;;2.10;;
75508;SDS011;64214;47.250;11.332;2022-11-27T00:31:14;3.30;;;2.15;;
75508;SDS011;64214;47.250;11.332;2022-11-27T00:31:28;3.58;;;2.40;;
75508;SDS011;64214;47.250;11.332;2022-11-27T00:31:40;3.50;;;2.45;;
75508;SDS011;64214;47.250;11.332;2022-11-27T00:31:51;3.75;;;2.33;;
75508;SDS011;64214;47.250;11.332;2022-11-27T00:32:02;3.47;;;2.25;;
75508;SDS011;64214;47.250;11.332;2022-11-27T00:32:16;3.53;;;2.40;;
75508;SDS011;64214;47.250;11.332;2022-11-27T00:32:27;3.20;;;2.40;;
75508;SDS011;64214;47.250;11.332;2022-11-27T00:32:39;2.97;;;2.28;;
75508;SDS011;64214;47.250;11.332;2022-11-27T00:32:50;3.03;;;2.35;;
75508;SDS011;64214;47.250;11.332;2022-11-27T00:33:02;3.25;;;2.40;;
75508;SDS011;64214;47.250;11.332;2022-11-27T00:33:13;3.45;;;2.50;;
75508;SDS011;64214;47.250;11.332;2022-11-27T00:33:24;3.67;;;2.50;;
75508;SDS011;64214;47.250;11.332;2022-11-27T00:33:35;3.70;;;2.40;;
75508;SDS011;64214;47.250;11.332;2022-11-27T00:33:47;3.47;;;2.30;;
75508;SDS011;64214;47.250;11.332;2022-11-27T00:33:59;2.97;;;2.20;;
75508;SDS011;64214;47.250;11.332;2022-11-27T00:34:11;2.92;;;2.10;;
75508;SDS011;64214;47.250;11.332;2022-11-27T00:34:22;3.20;;;2.05;;
75508;SDS011;64214;47.250;11.332;2022-11-27T00:34:33;3.15;;;1.92;;
75508;SDS011;64214;47.250;11.332;2022-11-27T00:34:44;2.63;;;1.80;;
75508;SDS011;64214;47.250;11.332;2022-11-27T00:34:55;2.30;;;1.80;;
75508;SDS011;64214;47.250;11.332;2022-11-27T00:35:06;2.00;;;1.73;;
75508;SDS011;64214;47.250;11.332;2022-11-27T00:35:18;2.45;;;1.85;;
75508;SDS011;64214;47.250;11.332;2022-11-27T00:35:29;3.88;;;1.88;;
75508;SDS011;64214;47.250;11.332;2022-11-27T00:35:40;4.30;;;1.98;;
75508;SDS011;64214;47.250;11.332;2022-11-27T00:35:51;4.43;;;1.95;;
75508;SDS011;64214;47.250;11.332;2022-11-27T00:36:03;4.03;;;2.28;;
75508;SDS011;64214;47.250;11.332;2022-11-27T00:36:15;3.60;;;2.25;;
75508;SDS011;64214;47.250;11.332;2022-11-27T00:36:27;2.90;;;2.08;;
75508;SDS011;64214;47.250;11.332;2022-11-27T00:36:39;2.53;;;2.10;;
75508;SDS011;64214;47.250;11.332;2022-11-27T00:36:50;3.22;;;2.10;;
75508;SDS011;64214;47.250;11.332;2022-11-27T00:37:01;3.30;;;2.10;;
75508;SDS011;64214;47.250;11.332;2022-11-27T00:37:12;3.17;;;2.10;;
75508;SDS011;64214;47.250;11.332;2022-11-27T00:37:24;3.22;;;2.00;;
75508;SDS011;64214;47.250;11.332;2022-11-27T00:37:35;3.40;;;1.85;;
75508;SDS011;64214;47.250;11.332;2022-11-27T00:37:46;3.30;;;1.83;;
75508;SDS011;64214;47.250;11.332;2022-11-27T00:37:57;3.38;;;1.83;;
75508;SDS011;64214;47.250;11.332;2022-11-27T00:38:08;3.92;;;1.83;;
75508;SDS011;64214;47.250;11.332;2022-11-27T00:38:20;3.05;;;1.80;;
75508;SDS011;64214;47.250;11.332;2022-11-27T00:38:31;3.00;;;1.90;;
75508;SDS011;64214;47.250;11.332;2022-11-27T00:38:42;2.20;;;1.90;;
75508;SDS011;64214;47.250;11.332;2022-11-27T00:38:54;2.33;;;2.08;;
75508;SDS011;64214;47.250;11.332;2022-11-27T00:39:05;2.50;;;2.20;;
75508;SDS011;64214;47.250;11.332;2022-11-27T00:39:16;3.00;;;2.47;;
75508;SDS011;64214;47.250;11.332;2022-11-27T00:39:28;3.05;;;2.45;;
75508;SDS011;64214;47.250;11.332;2022-11-27T00:39:39;3.25;;;2.30;;
75508;SDS011;64214;47.250;11.332;2022-11-27T00:39:50;3.45;;;2.30;;
75508;SDS011;64214;47.250;11.332;2022-11-27T00:40:01;3.42;;;2.15;;
75508;SDS011;64214;47.250;11.332;2022-11-27T00:40:12;3.47;;;2.20;;
75508;SDS011;64214;47.250;11.332;2022-11-27T00:40:24;3.70;;;2.10;;
75508;SDS011;64214;47.250;11.332;2022-11-27T00:40:35;3.53;;;2.15;;
75508;SDS011;64214;47.250;11.332;2022-11-27T00:40:46;3.67;;;2.20;;
75508;SDS011;64214;47.250;11.332;2022-11-27T00:40:58;2.95;;;2.17;;
75508;SDS011;64214;47.250;11.332;2022-11-27T00:41:18;2.60;;;2.10;;
75508;SDS011;64214;47.250;11.332;2022-11-27T00:41:31;2.88;;;2.10;;
75508;SDS011;64214;47.250;11.332;2022-11-27T00:41:42;3.20;;;2.00;;
75508;SDS011;64214;47.250;11.332;2022-11-27T00:41:54;3.08;;;2.03;;
75508;SDS011;64214;47.250;11.332;2022-11-27T00:42:05;3.00;;;1.90;;
75508;SDS011;64214;47.250;11.332;2022-11-27T00:42:16;3.33;;;2.00;;
75508;SDS011;64214;47.250;11.332;2022-11-27T00:42:27;3.80;;;1.88;;
75508;SDS011;64214;47.250;11.332;2022-11-27T00:42:38;3.78;;;2.00;;
75508;SDS011;64214;47.250;11.332;2022-11-27T00:42:49;3.80;;;2.00;;
75508;SDS011;64214;47.250;11.332;2022-11-27T00:43:00;3.40;;;1.80;;
75508;SDS011;64214;47.250;11.332;2022-11-27T00:43:11;2.72;;;1.65;;
75508;SDS011;64214;47.250;11.332;2022-11-27T00:43:22;2.58;;;1.70;;
75508;SDS011;64214;47.250;11.332;2022-11-27T00:43:34;3.00;;;1.77;;
75508;SDS011;64214;47.250;11.332;2022-11-27T00:43:47;3.60;;;1.80;;
75508;SDS011;64214;47.250;11.332;2022-11-27T00:43:58;4.05;;;1.85;;
75508;SDS011;64214;47.250;11.332;2022-11-27T00:44:11;3.10;;;1.90;;
75508;SDS011;64214;47.250;11.332;2022-11-27T00:44:22;3.13;;;1.90;;
75508;SDS011;64214;47.250;11.332;2022-11-27T00:44:33;2.78;;;1.88;;
75508;SDS011;64214;47.250;11.332;2022-11-27T00:44:45;2.97;;;1.67;;
75508;SDS011;64214;47.250;11.332;2022-11-27T00:44:56;2.58;;;1.60;;
75508;SDS011;64214;47.250;11.332;2022-11-27T00:45:07;2.80;;;1.50;;
75508;SDS011;64214;47.250;11.332;2022-11-27T00:45:18;2.88;;;1.70;;
75508;SDS011;64214;47.250;11.332;2022-11-27T00:45:29;3.70;;;1.70;;
75508;SDS011;64214;47.250;11.332;2022-11-27T00:45:41;3.45;;;1.63;;
75508;SDS011;64214;47.250;11.332;2022-11-27T00:45:52;2.67;;;1.52;;
75508;SDS011;64214;47.250;11.332;2022-11-27T00:46:03;2.65;;;1.70;;
75508;SDS011;64214;47.250;11.332;2022-11-27T00:46:15;3.08;;;1.75;;
75508;SDS011;64214;47.250;11.332;2022-11-27T00:46:28;3.40;;;1.52;;
75508;SDS011;64214;47.250;11.332;2022-11-27T00:46:42;3.50;;;1.70;;
75508;SDS011;64214;47.250;11.332;2022-11-27T00:46:53;3.10;;;1.67;;
75508;SDS011;64214;47.250;11.332;2022-11-27T00:47:04;3.53;;;1.75;;
75508;SDS011;64214;47.250;11.332;2022-11-27T00:47:15;2.95;;;1.55;;
75508;SDS011;64214;47.250;11.332;2022-11-27T00:47:26;2.70;;;1.50;;
75508;SDS011;64214;47.250;11.332;2022-11-27T00:47:38;3.03;;;1.52;;
75508;SDS011;64214;47.250;11.332;2022-11-27T00:47:49;3.45;;;1.83;;
75508;SDS011;64214;47.250;11.332;2022-11-27T00:48:00;3.70;;;1.98;;
75508;SDS011;64214;47.250;11.332;2022-11-27T00:48:11;3.63;;;1.98;;
75508;SDS011;64214;47.250;11.332;2022-11-27T00:48:22;3.25;;;1.83;;
75508;SDS011;64214;47.250;11.332;2022-11-27T00:48:33;2.83;;;1.83;;
75508;SDS011;64214;47.250;11.332;2022-11-27T00:48:44;2.90;;;2.00;;
75508;SDS011;64214;47.250;11.332;2022-11-27T00:48:56;2.80;;;2.00;;
75508;SDS011;64214;47.250;11.332;2022-11-27T00:49:09;2.75;;;1.85;;
75508;SDS011;64214;47.250;11.332;2022-11-27T00:49:22;2.80;;;1.90;;
75508;SDS011;64214;47.250;11.332;2022-11-27T00:49:33;2.55;;;1.88;;
75508;SDS011;64214;47.250;11.332;2022-11-27T00:49:44;2.58;;;1.80;;
75508;SDS011;64214;47.250;11.332;2022-11-27T00:49:56;2.78;;;2.08;;
75508;SDS011;64214;47.250;11.332;2022-11-27T00:50:07;2.42;;;1.88;;
75508;SDS011;64214;47.250;11.332;2022-11-27T00:50:18;2.47;;;1.90;;
75508;SDS011;64214;47.250;11.332;2022-11-27T00:50:29;2.58;;;1.70;;
75508;SDS011;64214;47.250;11.332;2022-11-27T00:50:41;2.53;;;1.65;;
75508;SDS011;64214;47.250;11.332;2022-11-27T00:50:57;2.45;;;1.50;;
75508;SDS011;64214;47.250;11.332;2022-11-27T00:51:13;2.75;;;1.40;;
75508;SDS011;64214;47.250;11.332;2022-11-27T00:51:26;3.13;;;1.60;;
75508;SDS011;64214;47.250;11.332;2022-11-27T00:51:38;3.50;;;1.70;;
75508;SDS011;64214;47.250;11.332;2022-11-27T00:51:50;3.08;;;1.58;;
75508;SDS011;64214;47.250;11.332;2022-11-27T00:52:01;2.55;;;1.58;;
75508;SDS011;64214;47.250;11.332;2022-11-27T00:52:12;2.60;;;1.70;;
75508;SDS011;64214;47.250;11.332;2022-11-27T00:52:23;2.85;;;1.70;;
75508;SDS011;64214;47.250;11.332;2022-11-27T00:52:34;2.70;;;1.58;;
75508;SDS011;64214;47.250;11.332;2022-11-27T00:52:45;2.53;;;1.45;;
75508;SDS011;64214;47.250;11.332;2022-11-27T00:52:57;2.65;;;1.70;;
75508;SDS011;64214;47.250;11.332;2022-11-27T00:53:08;2.75;;;1.80;;
75508;SDS011;64214;47.250;11.332;2022-11-27T00:53:19;3.05;;;1.73;;
75508;SDS011;64214;47.250;11.332;2022-11-27T00:53:31;3.13;;;1.60;;
75508;SDS011;64214;47.250;11.332;2022-11-27T00:53:42;3.33;;;1.52;;
75508;SDS011;64214;47.250;11.332;2022-11-27T00:53:54;3.42;;;1.60;;
75508;SDS011;64214;47.250;11.332;2022-11-27T00:54:06;2.90;;;1.50;;
75508;SDS011;64214;47.250;11.332;2022-11-27T00:54:17;2.20;;;1.60;;
75508;SDS011;64214;47.250;11.332;2022-11-27T00:54:28;1.70;;;1.40;;
75508;SDS011;64214;47.250;11.332;2022-11-27T00:54:39;1.98;;;1.50;;
75508;SDS011;64214;47.250;11.332;2022-11-27T00:54:50;2.40;;;1.77;;
75508;SDS011;64214;47.250;11.332;2022-11-27T00:55:01;2.88;;;1.98;;
75508;SDS011;64214;47.250;11.332;2022-11-27T00:55:12;3.05;;;1.88;;
75508;SDS011;64214;47.250;11.332;2022-11-27T00:55:24;2.53;;;1.58;;
75508;SDS011;64214;47.250;11.332;2022-11-27T00:55:35;2.20;;;1.40;;
75508;SDS011;64214;47.250;11.332;2022-11-27T00:55:46;1.83;;;1.40;;
75508;SDS011;64214;47.250;11.332;2022-11-27T00:55:57;2.72;;;1.70;;
75508;SDS011;64214;47.250;11.332;2022-11-27T00:56:09;3.70;;;1.80;;
75508;SDS011;64214;47.250;11.332;2022-11-27T00:56:26;3.10;;;1.70;;
75508;SDS011;64214;47.250;11.332;2022-11-27T00:56:39;2.35;;;1.50;;
75508;SDS011;64214;47.250;11.332;2022-11-27T00:56:50;2.40;;;1.63;;
75508;SDS011;64214;47.250;11.332;2022-11-27T00:57:01;3.35;;;1.75;;
75508;SDS011;64214;47.250;11.332;2022-11-27T00:57:12;3.85;;;1.83;;
75508;SDS011;64214;47.250;11.332;2022-11-27T00:57:23;4.13;;;1.95;;
75508;SDS011;64214;47.250;11.332;2022-11-27T00:57:35;3.35;;;2.10;;
75508;SDS011;64214;47.250;11.332;2022-11-27T00:57:46;2.83;;;1.95;;
75508;SDS011;64214;47.250;11.332;2022-11-27T00:57:57;2.85;;;1.77;;
75508;SDS011;64214;47.250;11.332;2022-11-27T00:58:08;2.90;;;1.80;;
75508;SDS011;64214;47.250;11.332;2022-11-27T00:58:19;2.70;;;1.80;;
75508;SDS011;64214;47.250;11.332;2022-11-27T00:58:31;2.83;;;1.98;;
75508;SDS011;64214;47.250;11.332;2022-11-27T00:58:42;3.40;;;2.15;;
75508;SDS011;64214;47.250;11.332;2022-11-27T00:58:53;3.45;;;2.13;;
75508;SDS011;64214;47.250;11.332;2022-11-27T00:59:05;3.20;;;2.05;;
75508;SDS011;64214;47.250;11.332;2022-11-27T00:59:17;2.67;;;1.70;;
75508;SDS011;64214;47.250;11.332;2022-11-27T00:59:30;2.55;;;1.70;;
75508;SDS011;64214;47.250;11.332;2022-11-27T00:59:42;2.63;;;1.88;;
75508;SDS011;64214;47.250;11.332;2022-11-27T00:59:53;3.20;;;2.20;;
75508;SDS011;64214;47.250;11.332;2022-11-27T01:00:04;2.80;;;2.20;;
75508;SDS011;64214;47.250;11.332;2022-11-27T01:00:16;3.08;;;2.50;;
75508;SDS011;64214;47.250;11.332;2022-11-27T01:00:29;2.92;;;2.47;;
75508;SDS011;64214;47.250;11.332;2022-11-27T01:00:40;3.15;;;2.53;;
75508;SDS011;64214;47.250;11.332;2022-11-27T01:00:54;4.07;;;2.35;;
75508;SDS011;64214;47.250;11.332;2022-11-27T01:01:17;4.40;;;2.30;;
75508;SDS011;64214;47.250;11.332;2022-11-27T01:01:31;3.20;;;2.20;;
75508;SDS011;64214;47.250;11.332;2022-11-27T01:01:43;3.20;;;2.22;;
75508;SDS011;64214;47.250;11.332;2022-11-27T01:01:56;3.35;;;2.30;;
75508;SDS011;64214;47.250;11.332;2022-11-27T01:02:07;3.15;;;2.33;;
75508;SDS011;64214;47.250;11.332;2022-11-27T01:02:18;3.58;;;2.33;;
75508;SDS011;64214;47.250;11.332;2022-11-27T01:02:29;4.53;;;2.38;;
75508;SDS011;64214;47.250;11.332;2022-11-27T01:02:40;4.40;;;2.20;;
75508;SDS011;64214;47.250;11.332;2022-11-27T01:02:51;3.80;;;1.95;;
75508;SDS011;64214;47.250;11.332;2022-11-27T01:03:02;3.67;;;1.90;;
75508;SDS011;64214;47.250;11.332;2022-11-27T01:03:13;4.30;;;2.00;;
75508;SDS011;64214;47.250;11.332;2022-11-27T01:03:24;4.03;;;2.10;;
75508;SDS011;64214;47.250;11.332;2022-11-27T01:03:36;3.42;;;2.10;;
75508;SDS011;64214;47.250;11.332;2022-11-27T01:03:47;3.42;;;2.10;;
75508;SDS011;64214;47.250;11.332;2022-11-27T01:03:59;3.35;;;2.17;;
75508;SDS011;64214;47.250;11.332;2022-11-27T01:04:12;3.65;;;2.17;;
75508;SDS011;64214;47.250;11.332;2022-11-27T01:04:24;4.03;;;2.25;;
75508;SDS011;64214;47.250;11.332;2022-11-27T01:04:35;4.05;;;2.47;;
75508;SDS011;64214;47.250;11.332;2022-11-27T01:04:47;3.97;;;2.45;;
75508;SDS011;64214;47.250;11.332;2022-11-27T01:04:58;3.75;;;2.40;;
75508;SDS011;64214;47.250;11.332;2022-11-27T01:05:09;3.07;;;2.00;;
75508;SDS011;64214;47.250;11.332;2022-11-27T01:05:20;3.07;;;1.90;;
75508;SDS011;64214;47.250;11.332;2022-11-27T01:05:34;3.23;;;2.03;;
75508;SDS011;64214;47.250;11.332;2022-11-27T01:05:46;3.42;;;2.50;;
75508;SDS011;64214;47.250;11.332;2022-11-27T01:06:01;3.35;;;2.60;;
75508;SDS011;64214;47.250;11.332;2022-11-27T01:06:14;3.53;;;2.40;;
75508;SDS011;64214;47.250;11.332;2022-11-27T01:06:25;4.22;;;2.45;;
75508;SDS011;64214;47.250;11.332;2022-11-27T01:06:37;4.03;;;2.30;;
75508;SDS011;64214;47.250;11.332;2022-11-27T01:06:49;4.50;;;2.70;;
75508;SDS011;64214;47.250;11.332;2022-11-27T01:07:00;4.13;;;2.70;;
75508;SDS011;64214;47.250;11.332;2022-11-27T01:07:11;4.87;;;2.80;;
75508;SDS011;64214;47.250;11.332;2022-11-27T01:07:22;4.85;;;2.40;;
75508;SDS011;64214;47.250;11.332;2022-11-27T01:07:33;4.40;;;2.40;;
75508;SDS011;64214;47.250;11.332;2022-11-27T01:07:44;3.40;;;2.50;;
75508;SDS011;64214;47.250;11.332;2022-11-27T01:07:55;3.35;;;2.60;;
75508;SDS011;64214;47.250;11.332;2022-11-27T01:08:06;3.67;;;2.63;;
75508;SDS011;64214;47.250;11.332;2022-11-27T01:08:18;3.60;;;2.58;;
75508;SDS011;64214;47.250;11.332;2022-11-27T01:08:29;3.33;;;2.38;;
75508;SDS011;64214;47.250;11.332;2022-11-27T01:08:40;3.15;;;2.50;;
75508;SDS011;64214;47.250;11.332;2022-11-27T01:08:51;3.58;;;2.67;;
75508;SDS011;64214;47.250;11.332;2022-11-27T01:09:03;3.50;;;2.60;;
75508;SDS011;64214;47.250;11.332;2022-11-27T01:09:14;3.90;;;2.47;;
75508;SDS011;64214;47.250;11.332;2022-11-27T01:09:25;4.10;;;2.40;;